Time;durP1;ratioP1;P1;durP2;ratioP2;P2;SDS_P1;SDS_P2;PMS_P1;PMS_P2;Temp;Humidity;BMP_temperature;BMP_pressure;BME280_temperature;BME280_humidity;BME280_pressure;Samples;Min_cycle;Max_cycle;Signal;HPM_P1;HPM_P2
2023/04/05 00:00:53;;;;;;;13.23;11.03;;;;;;;0.22;100.00;102601.38;5013308;28;20466;-43
2023/04/05 00:03:23;;;;;;;11.87;10.83;;;;;;;0.20;100.00;102605.88;5012375;28;20481;-45
2023/04/05 00:05:53;;;;;;;10.90;10.10;;;;;;;0.18;100.00;102599.84;5013183;28;20439;-44
2023/04/05 00:08:25;;;;;;;11.27;10.33;;;;;;;0.16;100.00;102588.59;5013284;28;20413;-46
2023/04/05 00:10:53;;;;;;;11.63;10.80;;;;;;;0.15;100.00;102592.13;5013199;28;20475;-44
2023/04/05 00:13:21;;;;;;;11.37;10.40;;;;;;;0.13;100.00;102594.00;5012209;28;20461;-44
2023/04/05 00:15:49;;;;;;;12.20;11.30;;;;;;;0.13;100.00;102595.78;5013034;28;20797;-43
2023/04/05 00:18:22;;;;;;;12.17;11.10;;;;;;;0.12;100.00;102588.84;5012955;28;20476;-44
2023/04/05 00:20:52;;;;;;;12.30;11.30;;;;;;;0.10;100.00;102583.69;5012985;28;20480;-46
2023/04/05 00:23:21;;;;;;;11.60;10.70;;;;;;;0.09;100.00;102587.22;5012177;28;20824;-43
2023/04/05 00:25:49;;;;;;;10.30;9.60;;;;;;;0.10;100.00;102590.69;5012985;28;20795;-44
2023/04/05 00:28:17;;;;;;;11.40;10.40;;;;;;;0.07;100.00;102590.88;5012778;28;20796;-44
2023/04/05 00:30:44;;;;;;;12.93;11.73;;;;;;;0.06;100.00;102589.19;5012905;28;20479;-46
2023/04/05 00:33:13;;;;;;;10.47;9.70;;;;;;;0.03;100.00;102586.75;5011884;28;21012;-43
2023/04/05 00:35:41;;;;;;;12.10;10.87;;;;;;;0.00;100.00;102587.75;5012523;28;20483;-43
2023/04/05 00:38:10;;;;;;;11.60;10.60;;;;;;;-0.02;100.00;102589.59;5012668;28;20804;-47
2023/04/05 00:40:37;;;;;;;11.80;10.70;;;;;;;-0.07;100.00;102584.63;5012349;28;20532;-44
2023/04/05 00:43:06;;;;;;;11.93;10.90;;;;;;;-0.08;100.00;102582.06;5011887;28;20898;-42
2023/04/05 00:45:33;;;;;;;11.07;9.87;;;;;;;-0.12;100.00;102581.38;5012589;28;20429;-43
2023/04/05 00:48:01;;;;;;;11.13;10.20;;;;;;;-0.15;100.00;102578.09;5012300;28;20456;-44
2023/04/05 00:50:29;;;;;;;14.53;11.50;;;;;;;-0.19;100.00;102580.03;5012137;28;20527;-47
2023/04/05 00:52:57;;;;;;;13.40;11.67;;;;;;;-0.21;100.00;102578.44;5011689;28;20475;-44
2023/04/05 00:55:27;;;;;;;11.33;10.40;;;;;;;-0.25;100.00;102582.13;5012404;28;20847;-47
2023/04/05 00:57:55;;;;;;;15.67;11.53;;;;;;;-0.25;100.00;102579.50;5012006;28;20503;-44
2023/04/05 01:00:23;;;;;;;15.50;10.60;;;;;;;-0.28;100.00;102580.53;5012123;28;20520;-42
2023/04/05 01:02:56;;;;;;;13.63;12.27;;;;;;;-0.29;100.00;102572.72;5011623;28;20463;-45
2023/04/05 01:05:37;;;;;;;10.97;10.00;;;;;;;-0.31;100.00;102569.34;5012201;28;20951;-48
2023/04/05 01:08:16;;;;;;;11.70;10.70;;;;;;;-0.31;100.00;102579.84;5011944;28;20457;-48
2023/04/05 01:10:51;;;;;;;13.33;12.10;;;;;;;-0.35;100.00;102566.03;5011987;28;20405;-46
2023/04/05 01:13:18;;;;;;;12.57;11.30;;;;;;;-0.36;100.00;102566.13;5011500;28;20452;-45
2023/04/05 01:15:47;;;;;;;11.70;10.63;;;;;;;-0.37;100.00;102572.31;5011459;28;20520;-44
2023/04/05 01:18:14;;;;;;;11.67;10.57;;;;;;;-0.38;100.00;102570.59;5012117;28;20984;-45
2023/04/05 01:20:52;;;;;;;12.60;11.40;;;;;;;-0.38;100.00;102567.97;5012387;28;20429;-46
2023/04/05 01:23:37;;;;;;;12.90;11.90;;;;;;;-0.39;100.00;102572.41;5011264;28;20449;-44
2023/04/05 01:26:42;;;;;;;13.00;12.07;;;;;;;-0.38;100.00;102574.06;5011764;28;20419;-45
2023/04/05 01:29:38;;;;;;;13.20;10.67;;;;;;;-0.42;100.00;102572.56;5012059;28;20429;-47
2023/04/05 01:32:15;;;;;;;13.47;12.07;;;;;;;-0.46;100.00;102572.78;5011290;28;20416;-44
2023/04/05 01:34:50;;;;;;;12.80;11.70;;;;;;;-0.50;100.00;102569.47;5011798;28;20412;-44
2023/04/05 01:37:21;;;;;;;11.80;10.90;;;;;;;-0.52;100.00;102570.50;5011754;28;20449;-47
2023/04/05 01:39:50;;;;;;;13.90;12.20;;;;;;;-0.53;100.00;102567.00;5011989;28;20432;-44
2023/04/05 01:42:23;;;;;;;12.70;11.40;;;;;;;-0.51;100.00;102574.81;5011328;28;20452;-45
2023/04/05 01:44:54;;;;;;;13.40;11.30;;;;;;;-0.50;100.00;102566.00;5011718;28;20483;-48
2023/04/05 01:47:21;;;;;;;13.80;12.53;;;;;;;-0.48;100.00;102562.41;5011887;28;20457;-44
2023/04/05 01:49:49;;;;;;;11.87;10.77;;;;;;;-0.47;100.00;102552.75;5011678;28;20958;-45
2023/04/05 01:52:17;;;;;;;11.93;11.10;;;;;;;-0.46;100.00;102546.59;5011325;28;20449;-49
2023/04/05 01:54:45;;;;;;;13.23;12.10;;;;;;;-0.43;100.00;102551.66;5011584;28;20953;-43
2023/04/05 01:57:12;;;;;;;13.33;12.10;;;;;;;-0.40;100.00;102554.13;5011749;28;20455;-49
2023/04/05 01:59:40;;;;;;;12.33;11.30;;;;;;;-0.34;100.00;102543.31;5011804;28;20433;-43
2023/04/05 02:02:09;;;;;;;13.80;12.73;;;;;;;-0.33;100.00;102543.19;5010680;28;20437;-44
2023/04/05 02:04:37;;;;;;;15.73;14.03;;;;;;;-0.31;100.00;102540.50;5011790;28;20496;-46
2023/04/05 02:07:05;;;;;;;14.60;13.20;;;;;;;-0.27;100.00;102536.81;5011708;28;20453;-44
2023/04/05 02:09:33;;;;;;;15.10;13.70;;;;;;;-0.26;100.00;102533.25;5011717;28;20512;-44
2023/04/05 02:12:00;;;;;;;13.27;12.27;;;;;;;-0.23;100.00;102536.53;5010938;28;20458;-42
2023/04/05 02:14:29;;;;;;;16.47;12.47;;;;;;;-0.18;100.00;102528.44;5011335;28;20429;-43
2023/04/05 02:16:57;;;;;;;13.77;12.40;;;;;;;-0.15;100.00;102536.97;5011438;28;20441;-42
2023/04/05 02:19:28;;;;;;;13.17;12.17;;;;;;;-0.11;100.00;102528.00;5011329;28;20940;-45
2023/04/05 02:21:56;;;;;;;13.03;12.03;;;;;;;-0.07;100.00;102529.53;5010941;28;20425;-45
2023/04/05 02:24:24;;;;;;;14.10;12.70;;;;;;;-0.02;100.00;102531.91;5011228;28;20477;-46
2023/04/05 02:26:51;;;;;;;12.60;11.50;;;;;;;0.02;100.00;102538.69;5011695;28;20463;-42
2023/04/05 02:29:19;;;;;;;13.87;12.57;;;;;;;0.08;100.00;102532.25;5015068;28;20435;-46
2023/04/05 02:31:48;;;;;;;14.30;12.87;;;;;;;0.14;100.00;102539.75;5014705;28;20928;-43
2023/04/05 02:34:16;;;;;;;13.33;12.23;;;;;;;0.19;100.00;102530.69;5013947;28;20441;-44
2023/04/05 02:36:46;;;;;;;14.27;13.10;;;;;;;0.23;100.00;102529.59;5014077;28;20796;-49
2023/04/05 02:39:13;;;;;;;12.70;11.70;;;;;;;0.27;100.00;102533.72;5013666;28;20440;-45
2023/04/05 02:41:41;;;;;;;13.57;12.30;;;;;;;0.30;100.00;102525.69;5013788;28;20485;-43
2023/04/05 02:44:09;;;;;;;15.73;14.13;;;;;;;0.34;100.00;102524.59;5013154;28;20472;-45
2023/04/05 02:46:36;;;;;;;13.97;12.67;;;;;;;0.36;100.00;102519.28;5013696;28;20499;-43
2023/04/05 02:49:04;;;;;;;14.10;12.97;;;;;;;0.37;100.00;102516.53;5013760;28;20440;-44
2023/04/05 02:51:33;;;;;;;13.70;12.53;;;;;;;0.40;100.00;102524.22;5013598;28;21053;-47
2023/04/05 02:54:03;;;;;;;15.97;12.83;;;;;;;0.45;100.00;102522.19;5013641;28;20460;-45
2023/04/05 02:56:31;;;;;;;14.23;13.07;;;;;;;0.50;100.00;102519.31;5014516;28;20457;-46
2023/04/05 02:58:58;;;;;;;13.43;12.30;;;;;;;0.51;100.00;102508.72;5014545;28;20441;-45
2023/04/05 03:01:27;;;;;;;16.07;13.47;;;;;;;0.55;100.00;102501.50;5014128;28;20931;-45
2023/04/05 03:03:55;;;;;;;15.03;12.70;;;;;;;0.59;100.00;102508.28;5013691;28;20461;-45
2023/04/05 03:06:23;;;;;;;17.50;13.40;;;;;;;0.62;100.00;102496.75;5014237;28;20787;-48
2023/04/05 03:08:51;;;;;;;14.00;12.90;;;;;;;0.65;100.00;102502.66;5014356;28;20464;-45
2023/04/05 03:11:20;;;;;;;13.53;12.33;;;;;;;0.67;100.00;102502.56;5014050;28;20433;-46
2023/04/05 03:13:47;;;;;;;14.70;13.47;;;;;;;0.66;100.00;102495.66;5012565;28;20476;-44
2023/04/05 03:16:15;;;;;;;13.80;12.20;;;;;;;0.71;100.00;102498.84;5013948;28;20455;-47
2023/04/05 03:18:43;;;;;;;14.73;13.33;;;;;;;0.73;100.00;102502.19;5014234;28;20437;-44
2023/04/05 03:21:11;;;;;;;14.07;12.83;;;;;;;0.75;100.00;102501.16;5014146;28;20444;-47
2023/04/05 03:23:39;;;;;;;14.77;13.37;;;;;;;0.80;100.00;102503.53;5013340;28;20835;-44
2023/04/05 03:26:06;;;;;;;12.93;11.70;;;;;;;0.83;100.00;102498.09;5013761;28;20480;-46
2023/04/05 03:28:35;;;;;;;13.47;12.27;;;;;;;0.86;100.00;102508.44;5013751;28;20874;-48
2023/04/05 03:31:03;;;;;;;14.50;13.07;;;;;;;0.89;100.00;102495.13;5013912;28;20441;-42
2023/04/05 03:33:30;;;;;;;15.37;14.10;;;;;;;0.91;100.00;102503.75;5013004;28;20465;-45
2023/04/05 03:36:00;;;;;;;14.70;13.50;;;;;;;0.92;100.00;102498.41;5013694;28;20433;-43
2023/04/05 03:38:28;;;;;;;14.27;12.93;;;;;;;0.94;100.00;102491.28;5013221;28;21046;-45
2023/04/05 03:40:55;;;;;;;13.63;12.60;;;;;;;0.97;100.00;102490.25;5013584;28;20827;-49
2023/04/05 03:43:23;;;;;;;14.00;12.50;;;;;;;0.98;100.00;102490.16;5012963;28;20986;-42
2023/04/05 03:45:52;;;;;;;15.10;12.80;;;;;;;1.01;100.00;102497.00;5013197;28;20494;-43
2023/04/05 03:48:20;;;;;;;24.60;13.53;;;;;;;1.00;100.00;102493.53;5012642;28;20428;-45
2023/04/05 03:50:48;;;;;;;14.40;13.30;;;;;;;1.00;100.00;102482.19;5004910;28;20445;-48
2023/04/05 03:53:17;;;;;;;13.13;11.80;;;;;;;0.99;100.00;102488.34;5012097;28;20461;-45
2023/04/05 03:55:48;;;;;;;14.17;12.83;;;;;;;0.97;100.00;102485.00;5012777;28;20513;-44
2023/04/05 03:58:16;;;;;;;12.87;11.67;;;;;;;0.94;100.00;102483.41;5012587;28;21041;-47
2023/04/05 04:00:44;;;;;;;14.93;13.30;;;;;;;0.89;100.00;102487.25;5013186;28;20428;-46
2023/04/05 04:03:13;;;;;;;14.17;13.07;;;;;;;0.84;100.00;102487.50;5012235;28;20871;-49
2023/04/05 04:05:41;;;;;;;15.47;14.17;;;;;;;0.81;100.00;102481.56;5012844;28;20472;-44
2023/04/05 04:08:10;;;;;;;16.30;13.83;;;;;;;0.78;100.00;102481.75;5013114;28;20449;-45
2023/04/05 04:10:37;;;;;;;16.87;14.00;;;;;;;0.73;100.00;102473.31;5012860;28;20437;-46
2023/04/05 04:13:05;;;;;;;13.70;12.60;;;;;;;0.68;100.00;102480.63;5012608;28;20461;-45
2023/04/05 04:15:33;;;;;;;14.43;13.03;;;;;;;0.62;100.00;102475.75;5012728;28;20429;-45
2023/04/05 04:18:01;;;;;;;14.70;13.30;;;;;;;0.56;100.00;102484.84;5012766;28;20457;-45
2023/04/05 04:20:30;;;;;;;14.40;13.20;;;;;;;0.50;100.00;102469.44;5012866;28;20958;-44
2023/04/05 04:22:58;;;;;;;14.43;13.00;;;;;;;0.44;100.00;102475.03;5012191;28;20981;-43
2023/04/05 04:25:29;;;;;;;15.60;14.00;;;;;;;0.39;100.00;102479.69;5012801;28;20526;-46
2023/04/05 04:27:57;;;;;;;13.63;12.53;;;;;;;0.34;100.00;102479.13;5012923;28;20818;-44
2023/04/05 04:30:25;;;;;;;15.10;13.63;;;;;;;0.26;100.00;102484.81;5012898;28;20859;-44
2023/04/05 04:32:53;;;;;;;16.67;12.60;;;;;;;0.24;100.00;102491.91;5012090;28;20898;-44
2023/04/05 04:35:24;;;;;;;15.60;14.10;;;;;;;0.19;100.00;102487.88;5012845;28;20425;-49
2023/04/05 04:37:56;;;;;;;14.63;13.43;;;;;;;0.13;100.00;102490.84;5012798;28;20527;-43
2023/04/05 04:40:28;;;;;;;14.10;12.73;;;;;;;0.08;100.00;102491.13;5012787;28;20788;-44
2023/04/05 04:42:57;;;;;;;13.57;12.53;;;;;;;0.04;100.00;102486.13;5012130;28;20531;-45
2023/04/05 04:45:25;;;;;;;15.70;14.13;;;;;;;0.01;100.00;102487.13;5012619;28;20472;-43
2023/04/05 04:47:53;;;;;;;13.50;12.40;;;;;;;-0.03;100.00;102483.84;5012486;28;20461;-46
2023/04/05 04:50:21;;;;;;;19.80;14.13;;;;;;;-0.03;100.00;102478.59;5011414;28;20499;-47
2023/04/05 04:52:49;;;;;;;15.53;13.30;;;;;;;-0.03;100.00;102480.41;5011687;28;20523;-44
2023/04/05 04:55:24;;;;;;;15.83;14.33;;;;;;;-0.02;100.00;102485.53;5012255;28;20440;-44
2023/04/05 04:57:52;;;;;;;16.87;14.53;;;;;;;-0.02;100.00;102474.19;5012467;28;20460;-44
2023/04/05 05:00:20;;;;;;;15.73;13.73;;;;;;;-0.01;100.00;102481.16;5012172;28;20929;-46
2023/04/05 05:02:48;;;;;;;14.00;12.90;;;;;;;-0.01;100.00;102476.75;5011548;28;20495;-48
2023/04/05 05:05:16;;;;;;;14.50;13.23;;;;;;;0.00;100.00;102472.34;5012339;28;20799;-48
2023/04/05 05:07:45;;;;;;;14.83;13.10;;;;;;;0.02;100.00;102461.75;5012241;28;20457;-47
2023/04/05 05:10:15;;;;;;;22.23;13.43;;;;;;;0.33;100.00;102466.97;5012237;28;20914;-49
2023/04/05 05:12:44;;;;;;;16.07;14.30;;;;;;;0.98;100.00;102457.78;5011752;28;20898;-46
2023/04/05 05:15:12;;;;;;;15.47;13.60;;;;;;;1.40;100.00;102470.06;5012274;28;20425;-47
2023/04/05 05:17:40;;;;;;;15.77;14.23;;;;;;;1.81;100.00;102475.34;5012208;28;20471;-45
2023/04/05 05:20:09;;;;;;;16.20;14.80;;;;;;;2.09;100.00;102459.47;5012240;28;20429;-46
2023/04/05 05:22:39;;;;;;;16.90;14.30;;;;;;;2.62;100.00;102472.56;5011645;28;20544;-45
2023/04/05 05:25:08;;;;;;;14.20;12.73;;;;;;;3.31;100.00;102460.75;5012151;28;20437;-48
2023/04/05 05:27:36;;;;;;;13.30;12.20;;;;;;;3.67;100.00;102460.78;5011717;28;20492;-44
2023/04/05 05:30:06;;;;;;;12.23;11.33;;;;;;;3.89;100.00;102458.25;5012248;28;20417;-43
2023/04/05 05:32:34;;;;;;;12.73;11.60;;;;;;;4.20;100.00;102464.78;5011539;28;20539;-46
2023/04/05 05:35:02;;;;;;;12.67;11.47;;;;;;;4.67;100.00;102458.56;5012168;28;20527;-47
2023/04/05 05:37:30;;;;;;;12.23;10.93;;;;;;;5.24;100.00;102458.50;5011924;28;20552;-43
2023/04/05 05:39:59;;;;;;;11.80;10.67;;;;;;;5.54;100.00;102453.44;5011768;28;20459;-48
2023/04/05 05:42:27;;;;;;;11.80;10.70;;;;;;;6.03;100.00;102457.47;5011429;28;20501;-45
2023/04/05 05:44:54;;;;;;;11.63;10.70;;;;;;;6.90;100.00;102449.16;5011979;28;20433;-45
2023/04/05 05:47:23;;;;;;;11.77;10.77;;;;;;;7.54;100.00;102452.38;5011674;28;20477;-45
2023/04/05 05:49:51;;;;;;;11.90;9.37;;;;;;;7.92;100.00;102445.44;5011589;28;20994;-45
2023/04/05 05:52:19;;;;;;;9.90;9.17;;;;;;;8.21;100.00;102441.84;5011137;28;20457;-43
2023/04/05 05:54:47;;;;;;;10.57;9.60;;;;;;;8.50;100.00;102447.19;5011771;28;20791;-44
2023/04/05 05:57:14;;;;;;;12.30;10.20;;;;;;;8.97;100.00;102441.91;5011339;28;20511;-42
2023/04/05 05:59:42;;;;;;;11.13;10.13;;;;;;;9.19;100.00;102445.06;5011659;28;20441;-44
2023/04/05 06:02:10;;;;;;;12.83;9.40;;;;;;;9.16;100.00;102445.34;5013256;28;20452;-45
2023/04/05 06:04:40;;;;;;;11.47;10.47;;;;;;;8.55;100.00;102444.09;5015165;28;20986;-43
2023/04/05 06:07:08;;;;;;;10.90;9.80;;;;;;;8.02;100.00;102438.34;5015677;28;20481;-46
2023/04/05 06:09:36;;;;;;;11.27;10.47;;;;;;;7.49;100.00;102440.50;5015175;28;20931;-46
2023/04/05 06:12:04;;;;;;;10.43;9.63;;;;;;;7.01;100.00;102437.63;5014745;28;20528;-47
2023/04/05 06:14:31;;;;;;;12.13;10.90;;;;;;;6.60;100.00;102441.19;5015377;28;20437;-44
2023/04/05 06:16:59;;;;;;;10.33;9.37;;;;;;;6.24;100.00;102442.44;5015220;28;20475;-43
2023/04/05 06:19:27;;;;;;;11.10;9.83;;;;;;;5.93;100.00;102445.91;5015035;28;20506;-44
2023/04/05 06:21:59;;;;;;;11.33;10.20;;;;;;;5.72;100.00;102444.97;5014452;28;20432;-45
2023/04/05 06:24:30;;;;;;;11.30;10.40;;;;;;;5.51;100.00;102439.59;5015207;28;20421;-44
2023/04/05 06:26:58;;;;;;;11.70;10.50;;;;;;;5.30;100.00;102442.16;5015022;28;20970;-45
2023/04/05 06:29:26;;;;;;;13.27;11.80;;;;;;;5.15;100.00;102446.00;5015009;28;20448;-47
2023/04/05 06:31:55;;;;;;;12.30;11.20;;;;;;;5.01;100.00;102446.25;5014334;28;20525;-48
2023/04/05 06:34:22;;;;;;;13.20;10.10;;;;;;;4.91;100.00;102448.75;5014804;28;20532;-44
2023/04/05 06:36:50;;;;;;;11.53;10.17;;;;;;;4.86;100.00;102453.56;5014658;28;20978;-47
2023/04/05 06:39:19;;;;;;;13.17;11.87;;;;;;;4.78;100.00;102448.00;5015110;28;20414;-44
2023/04/05 06:41:47;;;;;;;12.27;11.23;;;;;;;4.76;100.00;102444.66;5014813;28;20436;-45
2023/04/05 06:44:15;;;;;;;14.07;11.83;;;;;;;4.74;100.00;102451.84;5014724;28;20527;-48
2023/04/05 06:46:43;;;;;;;13.07;11.70;;;;;;;4.75;100.00;102447.41;5014439;28;21017;-47
2023/04/05 06:49:10;;;;;;;12.57;11.27;;;;;;;4.76;100.00;102446.44;5014532;28;20874;-44
2023/04/05 06:51:38;;;;;;;13.63;12.33;;;;;;;4.72;100.00;102447.66;5014719;28;20526;-45
2023/04/05 06:54:07;;;;;;;13.47;12.30;;;;;;;4.75;100.00;102461.44;5013937;28;20465;-44
2023/04/05 06:56:37;;;;;;;15.00;13.70;;;;;;;4.78;100.00;102445.34;5014516;28;20455;-47
2023/04/05 06:59:05;;;;;;;13.13;12.00;;;;;;;4.83;100.00;102459.09;5014706;28;20440;-45
2023/04/05 07:01:33;;;;;;;12.47;11.47;;;;;;;4.92;100.00;102447.81;5014167;28;20437;-48
2023/04/05 07:04:00;;;;;;;12.70;11.27;;;;;;;5.03;100.00;102455.72;5013719;28;20472;-47
2023/04/05 07:06:28;;;;;;;10.77;9.80;;;;;;;4.86;100.00;102448.28;5014068;28;21014;-45
2023/04/05 07:08:56;;;;;;;11.43;10.53;;;;;;;4.67;100.00;102450.63;5014278;28;20437;-45
2023/04/05 07:11:23;;;;;;;12.13;11.27;;;;;;;4.74;100.00;102456.28;5013965;28;20440;-44
2023/04/05 07:13:52;;;;;;;11.30;10.40;;;;;;;4.65;100.00;102447.28;5012695;28;20516;-44
2023/04/05 07:16:21;;;;;;;12.83;11.63;;;;;;;4.77;100.00;102448.97;5013939;28;20444;-43
2023/04/05 07:18:50;;;;;;;11.43;10.43;;;;;;;4.94;100.00;102442.38;5013941;28;20899;-42
2023/04/05 07:21:18;;;;;;;11.93;11.13;;;;;;;5.13;100.00;102431.22;5013994;28;20800;-44
2023/04/05 07:23:45;;;;;;;11.77;10.63;;;;;;;5.28;100.00;102433.50;5013490;28;20461;-46
2023/04/05 07:26:13;;;;;;;11.27;10.33;;;;;;;5.46;100.00;102425.91;5013916;28;20775;-44
2023/04/05 07:28:41;;;;;;;11.77;10.80;;;;;;;5.69;100.00;102438.13;5013624;28;20476;-48
2023/04/05 07:31:10;;;;;;;10.10;9.40;;;;;;;6.00;100.00;102433.88;5013873;28;20440;-45
2023/04/05 07:33:38;;;;;;;11.40;9.77;;;;;;;6.28;100.00;102427.97;5013233;28;20835;-44
2023/04/05 07:36:06;;;;;;;10.30;9.50;;;;;;;6.49;100.00;102430.63;5013673;28;20487;-44
2023/04/05 07:38:34;;;;;;;12.00;11.00;;;;;;;6.54;100.00;102426.59;5013830;28;20844;-48
2023/04/05 07:41:01;;;;;;;10.60;9.30;;;;;;;6.73;100.00;102427.69;5013787;28;20830;-46
2023/04/05 07:43:29;;;;;;;9.97;9.27;;;;;;;6.86;100.00;102423.88;5013115;28;20484;-46
2023/04/05 07:46:02;;;;;;;10.53;9.80;;;;;;;6.68;100.00;102433.41;5013625;28;20433;-46
2023/04/05 07:48:31;;;;;;;13.57;10.33;;;;;;;6.59;100.00;102435.03;5013281;28;20993;-46
2023/04/05 07:51:04;;;;;;;11.27;10.47;;;;;;;6.85;100.00;102431.97;5013667;28;20440;-45
2023/04/05 07:53:31;;;;;;;10.20;9.40;;;;;;;7.05;100.00;102434.56;5012698;28;20971;-43
2023/04/05 07:55:59;;;;;;;11.60;10.70;;;;;;;7.14;100.00;102423.16;5013164;28;20953;-45
2023/04/05 07:58:29;;;;;;;10.40;9.50;;;;;;;7.18;100.00;102429.06;5013070;28;20426;-46
2023/04/05 08:00:59;;;;;;;9.27;8.40;;;;;;;7.24;100.00;102431.16;5013408;28;20855;-47
2023/04/05 08:03:27;;;;;;;12.80;9.67;;;;;;;7.29;100.00;102426.28;5012583;28;20496;-47
2023/04/05 08:05:56;;;;;;;12.80;9.70;;;;;;;7.45;100.00;102429.28;5013027;28;20429;-50
2023/04/05 08:08:24;;;;;;;9.40;8.70;;;;;;;7.27;100.00;102422.09;5013276;28;20485;-47
2023/04/05 08:10:52;;;;;;;10.83;9.83;;;;;;;7.50;100.00;102435.03;5013016;28;20460;-48
2023/04/05 08:13:20;;;;;;;13.13;10.10;;;;;;;7.77;100.00;102426.41;5012478;28;20460;-44
2023/04/05 08:15:47;;;;;;;9.83;9.13;;;;;;;7.94;100.00;102430.25;5013205;28;20858;-47
2023/04/05 08:18:15;;;;;;;10.33;9.40;;;;;;;8.14;100.00;102427.44;5012971;28;20452;-45
2023/04/05 08:20:43;;;;;;;10.60;9.70;;;;;;;8.36;100.00;102426.38;5012674;28;20444;-45
2023/04/05 08:23:12;;;;;;;10.37;9.10;;;;;;;8.27;100.00;102425.34;5012213;28;20998;-45
2023/04/05 08:25:39;;;;;;;9.67;8.90;;;;;;;8.35;100.00;102427.31;5012959;28;20795;-48
2023/04/05 08:28:09;;;;;;;11.00;10.10;;;;;;;8.57;100.00;102426.19;5012824;28;20488;-45
2023/04/05 08:30:37;;;;;;;15.83;9.97;;;;;;;8.73;100.00;102426.41;5012684;28;20953;-43
2023/04/05 08:33:06;;;;;;;10.23;9.30;;;;;;;8.85;100.00;102418.13;5011949;28;20513;-46
2023/04/05 08:35:36;;;;;;;11.23;9.60;;;;;;;8.79;100.00;102413.38;5012742;28;20433;-46
2023/04/05 08:38:04;;;;;;;10.40;9.50;;;;;;;8.97;100.00;102410.81;5012620;28;20485;-43
2023/04/05 08:40:39;;;;;;;11.00;10.07;;;;;;;9.16;100.00;102410.75;5012736;28;20437;-44
2023/04/05 08:43:11;;;;;;;11.93;10.83;;;;;;;9.16;100.00;102410.75;5011995;28;20492;-46
2023/04/05 08:45:47;;;;;;;11.17;10.17;;;;;;;9.41;100.00;102417.19;5012341;28;20418;-46
2023/04/05 08:48:15;;;;;;;11.67;10.47;;;;;;;9.41;100.00;102410.03;5012316;28;20874;-44
2023/04/05 08:50:43;;;;;;;11.90;10.67;;;;;;;9.56;100.00;102410.38;5012202;28;20447;-46
2023/04/05 08:53:12;;;;;;;11.70;10.60;;;;;;;9.73;100.00;102409.59;5011704;28;20548;-47
2023/04/05 08:55:41;;;;;;;9.93;9.10;;;;;;;9.70;100.00;102409.88;5012459;28;20839;-45
2023/04/05 08:58:13;;;;;;;10.13;9.30;;;;;;;9.94;100.00;102411.97;5011998;28;20464;-43
2023/04/05 09:00:41;;;;;;;10.37;9.57;;;;;;;10.06;100.00;102402.75;5012246;28;20414;-45
2023/04/05 09:03:15;;;;;;;10.83;10.03;;;;;;;9.91;96.58;102407.78;5011511;28;20461;-45
2023/04/05 09:05:46;;;;;;;10.53;9.57;;;;;;;10.15;97.85;102403.69;5012186;28;20887;-49
2023/04/05 09:08:14;;;;;;;11.57;10.50;;;;;;;9.80;95.06;102394.66;5012257;28;20487;-49
2023/04/05 09:10:43;;;;;;;10.47;9.57;;;;;;;9.92;98.69;102400.59;5012308;28;20536;-45
2023/04/05 09:13:11;;;;;;;12.00;10.43;;;;;;;10.17;98.92;102402.53;5011529;28;20468;-46
2023/04/05 09:15:40;;;;;;;12.00;10.00;;;;;;;10.20;98.29;102396.06;5012277;28;20796;-51
2023/04/05 09:18:08;;;;;;;10.13;9.03;;;;;;;10.26;89.74;102390.94;5011897;28;21054;-44
2023/04/05 09:20:50;;;;;;;9.43;8.50;;;;;;;10.32;90.72;102394.81;5012283;28;20445;-46
2023/04/05 09:23:17;;;;;;;9.87;9.07;;;;;;;10.62;92.85;102388.22;5011360;28;20559;-42
2023/04/05 09:25:51;;;;;;;10.33;9.30;;;;;;;10.94;88.33;102388.38;5012105;28;20444;-47
2023/04/05 09:28:19;;;;;;;9.70;8.90;;;;;;;11.00;88.35;102385.09;5011835;28;20483;-47
2023/04/05 09:30:47;;;;;;;9.93;8.93;;;;;;;10.90;81.21;102382.53;5012091;28;20439;-47
2023/04/05 09:33:18;;;;;;;9.43;8.70;;;;;;;10.97;81.57;102380.91;5011387;28;20834;-49
2023/04/05 09:35:50;;;;;;;9.97;8.97;;;;;;;10.81;81.36;102386.16;5012718;28;20406;-47
2023/04/05 09:38:18;;;;;;;9.43;8.57;;;;;;;10.53;80.67;102393.50;5016055;28;20457;-47
2023/04/05 09:40:50;;;;;;;11.13;8.43;;;;;;;10.51;86.08;102383.97;5016014;28;20519;-51
2023/04/05 09:43:36;;;;;;;9.63;8.73;;;;;;;10.50;84.02;102377.81;5015374;28;20484;-52
2023/04/05 09:46:04;;;;;;;9.23;8.43;;;;;;;10.85;80.47;102378.66;5015793;28;20413;-42
2023/04/05 09:48:46;;;;;;;9.03;8.30;;;;;;;10.69;75.60;102387.44;5015861;28;21042;-45
2023/04/05 09:51:14;;;;;;;9.07;8.27;;;;;;;10.64;79.81;102379.03;5015706;28;20435;-52
2023/04/05 09:53:57;;;;;;;9.10;8.40;;;;;;;10.20;80.88;102377.41;5015088;28;21272;-46
2023/04/05 09:56:28;;;;;;;8.67;7.77;;;;;;;10.12;79.44;102378.16;5015709;28;20452;-48
2023/04/05 09:59:00;;;;;;;12.33;8.83;;;;;;;10.01;82.57;102368.53;5015448;28;20433;-48
2023/04/05 10:01:28;;;;;;;9.00;8.10;;;;;;;10.12;88.39;102371.97;5015470;28;20836;-45
2023/04/05 10:03:57;;;;;;;9.20;8.30;;;;;;;10.51;87.08;102379.47;5015044;28;20837;-49
2023/04/05 10:06:35;;;;;;;8.20;7.60;;;;;;;10.37;78.91;102371.19;5015346;28;20985;-42
2023/04/05 10:09:03;;;;;;;7.47;6.90;;;;;;;9.94;85.03;102372.00;5015478;28;20555;-42
2023/04/05 10:11:34;;;;;;;7.53;7.03;;;;;;;10.13;87.37;102363.84;5015247;28;20465;-45
2023/04/05 10:14:03;;;;;;;9.77;8.67;;;;;;;9.98;85.14;102357.34;5014754;28;20464;-47
2023/04/05 10:16:36;;;;;;;9.00;8.10;;;;;;;10.27;82.26;102355.31;5015273;28;20453;-47
2023/04/05 10:19:05;;;;;;;8.53;7.63;;;;;;;10.75;78.71;102346.75;5015116;28;20410;-48
2023/04/05 10:21:36;;;;;;;9.97;7.93;;;;;;;10.93;77.04;102350.19;5014776;28;20532;-47
2023/04/05 10:24:13;;;;;;;8.00;7.30;;;;;;;10.98;74.47;102349.72;5014566;28;20991;-45
2023/04/05 10:26:48;;;;;;;7.03;6.53;;;;;;;11.12;76.64;102341.09;5014819;28;20448;-47
2023/04/05 10:29:25;;;;;;;7.53;6.93;;;;;;;11.21;75.51;102342.78;5014908;28;20456;-48
2023/04/05 10:32:04;;;;;;;7.90;7.10;;;;;;;11.17;74.35;102333.44;5014655;28;20470;-44
2023/04/05 10:34:43;;;;;;;7.20;6.60;;;;;;;11.22;69.01;102333.78;5015096;28;20409;-47
2023/04/05 10:37:18;;;;;;;6.20;5.70;;;;;;;11.55;68.66;102337.38;5014933;28;20456;-45
2023/04/05 10:39:47;;;;;;;6.73;6.00;;;;;;;11.94;67.35;102326.94;5014811;28;20805;-44
2023/04/05 10:42:20;;;;;;;6.83;6.40;;;;;;;12.44;63.24;102319.53;5014421;28;20460;-44
2023/04/05 10:44:51;;;;;;;7.67;7.10;;;;;;;12.92;64.34;102323.06;5014879;28;20425;-42
2023/04/05 10:47:23;;;;;;;7.50;6.77;;;;;;;12.94;59.76;102315.69;5013302;28;20453;-45
2023/04/05 10:49:53;;;;;;;6.80;6.27;;;;;;;13.21;61.29;102317.94;5014403;28;20535;-44
2023/04/05 10:52:22;;;;;;;6.80;6.20;;;;;;;12.55;59.42;102321.84;5013948;28;20461;-46
2023/04/05 10:54:56;;;;;;;7.20;6.70;;;;;;;12.11;58.82;102317.91;5014662;28;20437;-44
2023/04/05 10:57:26;;;;;;;6.10;5.70;;;;;;;11.56;59.51;102326.53;5014443;28;20843;-42
2023/04/05 10:59:54;;;;;;;5.57;5.30;;;;;;;11.35;61.74;102318.13;5014499;28;20495;-46
2023/04/05 11:02:22;;;;;;;6.23;5.83;;;;;;;11.37;61.57;102309.97;5013406;28;20547;-44
2023/04/05 11:04:54;;;;;;;7.20;6.60;;;;;;;11.35;61.61;102303.97;5014455;28;20441;-41
2023/04/05 11:07:23;;;;;;;5.53;5.13;;;;;;;11.26;60.61;102315.63;5014491;28;20472;-42
2023/04/05 11:09:53;;;;;;;6.97;4.97;;;;;;;11.00;59.76;102310.34;5014402;28;20479;-43
2023/04/05 11:12:57;;;;;;;4.70;4.33;;;;;;;10.49;61.06;102300.59;5013815;28;20488;-45
2023/04/05 11:15:31;;;;;;;5.03;4.67;;;;;;;10.38;61.97;102304.38;5011791;28;20445;-48
2023/04/05 11:18:08;;;;;;;5.67;5.17;;;;;;;10.57;60.15;102294.47;5014141;28;20463;-44
2023/04/05 11:20:50;;;;;;;5.60;5.20;;;;;;;10.54;62.54;102291.13;5014200;28;20425;-44
2023/04/05 11:23:19;;;;;;;5.43;5.07;;;;;;;10.89;59.06;102286.63;5013353;28;21002;-44